createdAt,value
2022-08-07T00:03:03.123Z,1.90
2022-08-07T00:06:29.512Z,1.80
2022-08-07T00:10:19.201Z,1.63
2022-08-07T00:13:40.515Z,1.70
2022-08-07T00:17:06.832Z,1.80
2022-08-07T00:20:29.879Z,1.90
2022-08-07T00:23:57.629Z,1.80
2022-08-07T00:27:19.745Z,1.92
2022-08-07T00:30:44.544Z,1.67
2022-08-07T00:34:08.910Z,1.65
2022-08-07T00:37:47.847Z,1.50
2022-08-07T00:41:14.881Z,1.80
2022-08-07T00:44:38.320Z,1.63
2022-08-07T00:48:09.587Z,1.45
2022-08-07T00:51:56.895Z,1.77
2022-08-07T00:55:17.506Z,1.70
2022-08-07T00:58:49.570Z,2.00
2022-08-07T01:02:27.887Z,1.48
2022-08-07T01:05:51.585Z,1.60
2022-08-07T01:10:04.013Z,1.80
2022-08-07T01:12:57.858Z,1.75
2022-08-07T01:16:29.970Z,1.80
2022-08-07T01:19:54.942Z,1.70
2022-08-07T01:23:18.719Z,1.73
2022-08-07T01:27:00.200Z,1.80
2022-08-07T01:30:27.190Z,2.00
2022-08-07T01:33:55.975Z,1.80
2022-08-07T01:37:22.705Z,2.03
2022-08-07T01:40:50.521Z,2.17
2022-08-07T01:44:15.409Z,2.00
2022-08-07T01:48:19.203Z,2.03
2022-08-07T01:52:02.074Z,1.90
2022-08-07T01:55:09.431Z,1.92
2022-08-07T01:58:51.933Z,2.00
2022-08-07T02:02:32.949Z,2.00
2022-08-07T02:06:09.009Z,2.05
2022-08-07T02:09:58.506Z,2.17
2022-08-07T02:13:23.614Z,2.08
2022-08-07T02:17:08.055Z,2.05
2022-08-07T02:20:33.130Z,1.70
2022-08-07T02:23:55.532Z,2.03
2022-08-07T02:27:21.762Z,2.08
2022-08-07T02:30:46.167Z,1.98
2022-08-07T02:34:18.004Z,2.25
2022-08-07T02:37:47.842Z,2.50
2022-08-07T02:41:13.846Z,2.15
2022-08-07T02:44:48.150Z,2.20
2022-08-07T02:48:15.531Z,2.20
2022-08-07T02:51:51.840Z,1.85
2022-08-07T02:55:28.608Z,2.22
2022-08-07T02:59:05.729Z,2.70
2022-08-07T03:02:28.554Z,1.90
2022-08-07T03:05:52.130Z,2.15
2022-08-07T03:09:43.628Z,2.40
2022-08-07T03:13:01.558Z,2.38
2022-08-07T03:16:27.810Z,2.17
2022-08-07T03:19:54.747Z,2.00
2022-08-07T03:23:20.025Z,2.13
2022-08-07T03:27:02.002Z,2.17
2022-08-07T03:30:34.982Z,2.33
2022-08-07T03:34:01.862Z,2.30
2022-08-07T03:37:29.067Z,2.38
2022-08-07T03:40:57.793Z,2.45
2022-08-07T03:44:34.570Z,2.17
2022-08-07T03:47:58.252Z,2.22
2022-08-07T03:51:22.464Z,2.42
2022-08-07T03:54:54.339Z,2.72
2022-08-07T03:59:05.587Z,2.28
2022-08-07T04:02:03.494Z,2.33
2022-08-07T04:05:39.734Z,2.40
2022-08-07T04:09:06.520Z,2.28
2022-08-07T04:12:38.975Z,2.45
2022-08-07T04:16:01.270Z,2.40
2022-08-07T04:19:51.578Z,2.42
2022-08-07T04:23:09.554Z,2.30
2022-08-07T04:26:43.621Z,2.47
2022-08-07T04:30:11.843Z,2.40
2022-08-07T04:33:54.987Z,2.30
2022-08-07T04:37:21.502Z,2.33
2022-08-07T04:40:52.231Z,2.53
2022-08-07T04:44:28.140Z,2.22
2022-08-07T04:48:10.142Z,2.15
2022-08-07T04:51:41.422Z,2.60
2022-08-07T04:58:12.160Z,2.22
2022-08-07T05:00:07.984Z,2.63
2022-08-07T05:02:54.238Z,2.58
2022-08-07T05:06:28.080Z,2.45
2022-08-07T05:09:59.147Z,2.80
2022-08-07T05:14:53.976Z,2.50
2022-08-07T05:17:50.433Z,2.90
2022-08-07T05:21:05.852Z,2.30
2022-08-07T05:24:40.280Z,2.63
2022-08-07T05:28:20.874Z,2.90
2022-08-07T05:31:52.771Z,2.63
2022-08-07T05:35:33.105Z,3.17
2022-08-07T05:40:05.547Z,3.35
2022-08-07T05:42:40.653Z,3.30
2022-08-07T05:46:06.547Z,3.40
2022-08-07T05:49:40.504Z,2.80
2022-08-07T05:53:04.495Z,2.80
2022-08-07T05:56:29.972Z,2.65
2022-08-07T05:59:58.175Z,2.90
2022-08-07T06:03:25.007Z,3.00
2022-08-07T06:07:08.737Z,2.80
2022-08-07T06:10:46.046Z,3.22
2022-08-07T06:14:21.012Z,3.22
2022-08-07T06:17:53.398Z,3.08
2022-08-07T06:22:16.402Z,2.80
2022-08-07T06:25:02.972Z,2.50
2022-08-07T06:28:28.166Z,3.10
2022-08-07T06:31:51.212Z,2.97
2022-08-07T06:35:17.951Z,3.10
2022-08-07T06:38:58.470Z,3.15
2022-08-07T06:42:35.035Z,3.13
2022-08-07T06:46:06.854Z,3.20
2022-08-07T06:49:34.242Z,3.30
2022-08-07T06:53:49.272Z,3.35
2022-08-07T06:57:03.630Z,3.47
2022-08-07T07:00:35.375Z,3.60
2022-08-07T07:04:08.245Z,3.97
2022-08-07T07:07:59.982Z,3.15
2022-08-07T07:12:09.564Z,3.20
2022-08-07T07:15:23.550Z,3.42
2022-08-07T07:18:54.786Z,3.47
2022-08-07T07:22:36.364Z,2.80
2022-08-07T07:26:35.523Z,3.13
2022-08-07T07:30:08.984Z,3.00
2022-08-07T07:33:35.091Z,3.47
2022-08-07T07:37:05.462Z,3.20
2022-08-07T07:40:43.241Z,3.08
2022-08-07T07:44:17.340Z,3.15
2022-08-07T07:47:52.779Z,3.60
2022-08-07T07:51:18.664Z,3.42
2022-08-07T07:54:51.012Z,2.97
2022-08-07T07:58:15.398Z,3.22
2022-08-07T08:02:02.469Z,3.60
2022-08-07T08:05:32.203Z,2.88
2022-08-07T08:09:08.109Z,4.00
2022-08-07T08:12:52.364Z,3.10
2022-08-07T08:16:18.062Z,2.90
2022-08-07T08:20:17.493Z,2.60
2022-08-07T08:23:41.951Z,2.10
2022-08-07T08:27:10.038Z,2.75
2022-08-07T08:30:42.491Z,2.70
2022-08-07T08:34:06.932Z,2.60
2022-08-07T08:38:00.257Z,2.42
2022-08-07T08:41:26.206Z,2.30
2022-08-07T08:45:15.410Z,2.90
2022-08-07T08:48:45.746Z,2.90
2022-08-07T08:52:19.511Z,3.00
2022-08-07T08:55:54.704Z,3.13
2022-08-07T08:59:28.811Z,2.85
2022-08-07T09:02:57.675Z,2.42
2022-08-07T09:06:28.659Z,2.60
2022-08-07T09:09:59.784Z,2.63
2022-08-07T09:13:37.514Z,3.08
2022-08-07T09:17:16.111Z,2.65
2022-08-07T09:20:58.599Z,2.53
2022-08-07T09:24:54.880Z,2.47
2022-08-07T09:30:05.418Z,2.50
2022-08-07T09:32:23.811Z,2.70
2022-08-07T09:36:01.375Z,2.75
2022-08-07T09:39:56.027Z,2.55
2022-08-07T09:43:40.241Z,2.85
2022-08-07T09:47:55.118Z,2.17
2022-08-07T09:52:17.071Z,2.63
2022-08-07T09:55:29.591Z,2.28
2022-08-07T09:59:46.141Z,2.10
2022-08-07T10:04:06.677Z,2.20
2022-08-07T10:07:52.813Z,3.20
2022-08-07T10:12:01.578Z,2.40
2022-08-07T10:22:14.137Z,2.10
2022-08-07T10:25:10.478Z,2.22
2022-08-07T10:28:49.722Z,2.17
2022-08-07T10:36:50.892Z,2.05
2022-08-07T10:40:37.926Z,2.10
2022-08-07T10:44:13.460Z,2.38
2022-08-07T10:48:34.688Z,2.10
2022-08-07T10:52:19.247Z,2.30
2022-08-07T10:56:53.704Z,2.25
2022-08-07T11:00:39.404Z,2.63
2022-08-07T11:04:32.206Z,2.25
2022-08-07T11:08:34.088Z,1.98
2022-08-07T11:12:32.045Z,2.10
2022-08-07T11:21:31.968Z,1.98
2022-08-07T11:25:06.598Z,1.83
2022-08-07T11:28:42.416Z,2.08
2022-08-07T11:32:11.263Z,2.15
2022-08-07T11:35:59.448Z,2.20
2022-08-07T11:40:00.329Z,2.05
2022-08-07T11:43:54.465Z,1.75
2022-08-07T11:48:13.824Z,1.95
2022-08-07T11:52:10.387Z,1.90
2022-08-07T11:56:25.958Z,1.88
2022-08-07T12:00:19.327Z,2.10
2022-08-07T12:04:24.915Z,1.75
2022-08-07T12:08:04.125Z,1.98
2022-08-07T12:12:09.373Z,1.85
2022-08-07T12:16:06.134Z,1.83
2022-08-07T12:20:02.621Z,1.90
2022-08-07T12:24:07.102Z,1.83
2022-08-07T12:28:08.836Z,1.83
2022-08-07T12:31:52.930Z,1.90
2022-08-07T12:35:29.247Z,2.45
2022-08-07T12:39:43.239Z,1.83
2022-08-07T12:43:09.691Z,1.70
2022-08-07T12:46:47.623Z,1.85
2022-08-07T12:50:38.568Z,2.05
2022-08-07T12:54:36.837Z,2.00
2022-08-07T12:58:01.464Z,2.08
2022-08-07T13:01:41.385Z,2.17
2022-08-07T13:06:03.893Z,1.90
2022-08-07T13:10:22.028Z,1.95
2022-08-07T13:13:46.941Z,1.63
2022-08-07T13:17:21.287Z,1.95
2022-08-07T13:20:51.169Z,1.80
2022-08-07T13:24:25.621Z,1.70
2022-08-07T13:28:10.828Z,3.05
2022-08-07T13:31:46.204Z,2.78
2022-08-07T13:35:59.560Z,2.05
2022-08-07T13:40:32.599Z,1.70
2022-08-07T13:43:15.074Z,1.88
2022-08-07T13:46:41.882Z,1.67
2022-08-07T13:50:33.011Z,1.60
2022-08-07T13:54:01.997Z,1.90
2022-08-07T13:57:32.112Z,1.63
2022-08-07T14:01:09.150Z,2.10
2022-08-07T14:04:48.918Z,1.80
2022-08-07T14:08:18.634Z,1.83
2022-08-07T14:12:00.311Z,1.95
2022-08-07T14:15:31.977Z,1.65
2022-08-07T14:19:00.806Z,1.85
2022-08-07T14:22:39.785Z,1.60
2022-08-07T14:26:30.394Z,1.80
2022-08-07T14:30:11.704Z,1.95
2022-08-07T14:33:44.878Z,1.58
2022-08-07T14:37:16.171Z,1.80
2022-08-07T14:40:40.612Z,2.10
2022-08-07T14:44:19.166Z,2.00
2022-08-07T14:47:58.752Z,1.98
2022-08-07T14:51:28.068Z,2.00
2022-08-07T14:55:17.505Z,2.00
2022-08-07T14:58:44.127Z,2.10
2022-08-07T15:02:33.211Z,1.67
2022-08-07T15:06:04.095Z,2.00
2022-08-07T15:09:59.119Z,1.85
2022-08-07T15:13:38.363Z,1.73
2022-08-07T15:22:04.557Z,1.80
2022-08-07T15:25:40.014Z,1.80
2022-08-07T15:30:10.049Z,1.80
2022-08-07T15:33:42.738Z,1.50
2022-08-07T15:38:04.456Z,1.80
2022-08-07T15:42:45.731Z,1.80
2022-08-07T15:45:56.466Z,1.67
2022-08-07T15:50:05.398Z,1.70
2022-08-07T15:53:52.296Z,1.90
2022-08-07T15:57:40.119Z,1.92
2022-08-07T16:02:15.585Z,1.67
2022-08-07T16:05:51.902Z,2.15
2022-08-07T16:14:38.237Z,2.00
2022-08-07T16:18:13.475Z,2.10
2022-08-07T16:22:36.172Z,2.45
2022-08-07T16:26:15.243Z,2.00
2022-08-07T16:34:25.319Z,2.25
2022-08-07T16:44:06.218Z,1.85
2022-08-07T16:47:56.467Z,1.75
2022-08-07T16:51:54.516Z,1.88
2022-08-07T16:55:43.710Z,1.90
2022-08-07T16:59:26.034Z,1.60
2022-08-07T17:03:57.651Z,2.00
2022-08-07T17:07:55.071Z,2.20
2022-08-07T17:26:58.064Z,1.88
2022-08-07T17:30:26.812Z,1.95
2022-08-07T17:34:15.355Z,2.10
2022-08-07T17:38:09.625Z,2.00
2022-08-07T17:42:03.992Z,2.10
2022-08-07T17:45:42.278Z,2.50
2022-08-07T17:49:14.666Z,2.38
2022-08-07T17:52:50.525Z,1.90
2022-08-07T17:56:25.931Z,2.20
2022-08-07T18:00:48.843Z,2.10
2022-08-07T18:04:31.229Z,2.10
2022-08-07T18:08:12.738Z,1.88
2022-08-07T18:12:27.896Z,1.90
2022-08-07T18:16:07.413Z,2.30
2022-08-07T18:21:02.432Z,2.10
2022-08-07T18:24:51.481Z,2.00
2022-08-07T18:30:06.592Z,2.15
2022-08-07T18:33:27.128Z,2.30
2022-08-07T18:38:56.627Z,3.45
2022-08-07T18:42:48.650Z,2.38
2022-08-07T18:47:22.513Z,5.25
2022-08-07T18:52:34.249Z,2.67
2022-08-07T18:55:40.835Z,2.50
2022-08-07T18:59:47.846Z,3.10
2022-08-07T19:03:41.538Z,2.70
2022-08-07T19:07:51.882Z,2.92
2022-08-07T19:11:36.210Z,2.47
2022-08-07T19:16:03.720Z,2.10
2022-08-07T19:25:07.581Z,3.80
2022-08-07T19:30:53.696Z,3.38
2022-08-07T19:36:28.887Z,2.40
2022-08-07T19:40:34.589Z,2.40
2022-08-07T19:44:21.685Z,2.72
2022-08-07T19:47:56.081Z,2.10
2022-08-07T19:55:58.083Z,3.55
2022-08-07T19:59:27.280Z,2.40
2022-08-07T20:03:33.481Z,2.42
2022-08-07T20:07:10.136Z,2.28
2022-08-07T20:10:55.196Z,2.08
2022-08-07T20:14:31.336Z,2.40
2022-08-07T20:18:01.702Z,2.55
2022-08-07T20:21:29.166Z,2.33
2022-08-07T20:25:12.875Z,2.42
2022-08-07T20:28:51.802Z,2.47
2022-08-07T20:32:22.942Z,2.50
2022-08-07T20:36:03.701Z,2.50
2022-08-07T20:40:02.501Z,2.70
2022-08-07T20:43:28.030Z,2.58
2022-08-07T20:47:04.283Z,2.80
2022-08-07T20:50:34.782Z,3.20
2022-08-07T20:54:11.967Z,3.00
2022-08-07T20:58:02.649Z,3.05
2022-08-07T21:01:45.919Z,3.53
2022-08-07T21:05:42.575Z,2.67
2022-08-07T21:09:24.634Z,2.67
2022-08-07T21:12:59.130Z,2.90
2022-08-07T21:16:27.332Z,3.05
2022-08-07T21:20:04.724Z,2.88
2022-08-07T21:23:49.555Z,2.72
2022-08-07T21:27:20.214Z,2.70
2022-08-07T21:30:56.729Z,2.90
2022-08-07T21:34:32.229Z,2.70
2022-08-07T21:38:19.440Z,3.10
2022-08-07T21:42:02.704Z,2.47
2022-08-07T21:46:04.906Z,2.90
2022-08-07T21:49:40.686Z,2.67
2022-08-07T21:53:18.250Z,3.08
2022-08-07T21:56:53.751Z,3.00
2022-08-07T22:00:24.895Z,3.10
2022-08-07T22:04:00.242Z,3.00
2022-08-07T22:07:42.886Z,3.08
2022-08-07T22:11:11.093Z,3.22
2022-08-07T22:14:59.262Z,3.25
2022-08-07T22:18:29.662Z,3.20
2022-08-07T22:22:17.817Z,3.15
2022-08-07T22:26:02.618Z,3.75
2022-08-07T22:29:47.650Z,3.20
2022-08-07T22:33:15.072Z,3.35
2022-08-07T22:36:46.597Z,3.25
2022-08-07T22:40:17.240Z,3.80
2022-08-07T22:43:44.780Z,3.55
2022-08-07T22:47:35.351Z,4.13
2022-08-07T22:51:23.259Z,3.92
2022-08-07T22:55:22.864Z,3.60
2022-08-07T22:59:16.248Z,3.58
2022-08-07T23:03:04.191Z,3.30
2022-08-07T23:06:56.155Z,3.80
2022-08-07T23:10:38.607Z,3.90
2022-08-07T23:14:20.815Z,3.53
2022-08-07T23:18:03.405Z,3.75
2022-08-07T23:21:30.122Z,3.70
2022-08-07T23:25:05.012Z,3.70
2022-08-07T23:28:54.389Z,3.70
2022-08-07T23:34:21.156Z,3.53
2022-08-07T23:36:22.697Z,3.65
2022-08-07T23:40:04.202Z,3.38
2022-08-07T23:44:06.826Z,3.85
2022-08-07T23:47:55.404Z,3.92
2022-08-07T23:52:59.824Z,3.50
2022-08-07T23:55:52.987Z,3.65
2022-08-07T23:59:10.515Z,3.72
